createdAt,value
2022-10-16T00:13:06.534Z,78.91
2022-10-16T00:18:08.326Z,79.06
2022-10-16T00:23:11.643Z,79.24
2022-10-16T00:28:13.707Z,79.34
2022-10-16T00:33:15.593Z,79.44
2022-10-16T00:38:18.276Z,79.37
2022-10-16T00:43:39.525Z,79.31
2022-10-16T00:48:48.733Z,79.42
2022-10-16T00:54:09.263Z,79.49
2022-10-16T00:59:27.343Z,79.40
2022-10-16T01:04:35.588Z,79.49
2022-10-16T01:09:48.428Z,79.58
2022-10-16T01:15:15.830Z,79.66
2022-10-16T01:20:22.436Z,79.53
2022-10-16T01:25:38.200Z,79.68
2022-10-16T01:30:43.076Z,79.86
2022-10-16T01:35:53.239Z,79.87
2022-10-16T01:41:02.328Z,79.97
2022-10-16T01:46:04.917Z,80.12
2022-10-16T01:51:19.329Z,80.29
2022-10-16T01:56:23.756Z,80.25
2022-10-16T02:01:30.736Z,80.40
2022-10-16T02:06:33.130Z,80.42
2022-10-16T02:11:34.903Z,80.38
2022-10-16T02:16:43.049Z,80.45
2022-10-16T02:21:57.454Z,80.47
2022-10-16T02:27:06.755Z,80.34
2022-10-16T02:32:11.368Z,80.32
2022-10-16T02:37:13.731Z,80.23
2022-10-16T02:42:16.420Z,80.18
2022-10-16T02:47:18.345Z,80.16
2022-10-16T02:52:20.204Z,80.26
2022-10-16T02:57:22.196Z,80.39
2022-10-16T03:02:24.284Z,80.56
2022-10-16T03:07:26.697Z,80.81
2022-10-16T03:12:28.869Z,81.03
2022-10-16T03:17:32.530Z,81.14
2022-10-16T03:22:34.448Z,81.17
2022-10-16T03:27:36.540Z,81.15
2022-10-16T03:32:50.725Z,81.03
2022-10-16T03:37:53.048Z,80.76
2022-10-16T03:42:58.412Z,80.56
2022-10-16T03:48:00.292Z,80.33
2022-10-16T03:53:02.269Z,80.08
2022-10-16T03:58:04.383Z,79.86
2022-10-16T04:03:18.717Z,79.73
2022-10-16T04:08:20.600Z,79.61
2022-10-16T04:13:22.817Z,79.51
2022-10-16T04:18:24.832Z,79.38
2022-10-16T04:23:26.633Z,79.25
2022-10-16T04:28:28.928Z,79.13
2022-10-16T04:33:31.035Z,79.14
2022-10-16T04:38:33.023Z,79.16
2022-10-16T04:43:35.902Z,79.19
2022-10-16T04:48:37.809Z,79.36
2022-10-16T04:53:39.626Z,79.49
2022-10-16T04:58:47.685Z,79.73
2022-10-16T05:04:03.309Z,79.86
2022-10-16T05:09:06.154Z,80.00
2022-10-16T05:14:08.083Z,80.23
2022-10-16T05:24:31.852Z,80.54
2022-10-16T05:29:33.784Z,80.85
2022-10-16T05:34:35.760Z,80.95
2022-10-16T05:39:38.247Z,81.11
2022-10-16T05:44:40.328Z,81.22
2022-10-16T05:49:49.708Z,81.22
2022-10-16T05:54:58.072Z,81.22
2022-10-16T06:00:00.304Z,81.32
2022-10-16T06:05:02.154Z,81.28
2022-10-16T06:10:05.431Z,81.13
2022-10-16T06:15:07.986Z,81.10
2022-10-16T06:20:10.071Z,81.03
2022-10-16T06:25:11.822Z,80.87
2022-10-16T06:30:14.840Z,80.61
2022-10-16T06:35:41.714Z,80.39
2022-10-16T06:40:54.925Z,79.67
2022-10-16T06:46:02.413Z,79.36
2022-10-16T06:51:13.454Z,78.85
2022-10-16T06:56:21.363Z,78.44
2022-10-16T07:01:24.874Z,78.09
2022-10-16T07:06:28.163Z,77.60
2022-10-16T07:11:30.264Z,76.75
2022-10-16T07:16:33.900Z,76.07
2022-10-16T07:21:36.999Z,75.52
2022-10-16T07:26:40.314Z,74.90
2022-10-16T07:31:43.581Z,74.25
2022-10-16T07:36:45.568Z,73.38
2022-10-16T07:41:47.433Z,72.42
2022-10-16T07:47:03.103Z,71.71
2022-10-16T07:52:05.068Z,70.90
2022-10-16T07:57:06.820Z,70.17
2022-10-16T08:02:08.867Z,69.20
2022-10-16T08:07:10.774Z,68.75
2022-10-16T08:12:12.667Z,68.41
2022-10-16T08:17:15.646Z,68.08
2022-10-16T08:22:17.730Z,66.76
2022-10-16T08:27:19.581Z,65.53
2022-10-16T08:32:24.020Z,64.68
2022-10-16T08:37:33.542Z,64.20
2022-10-16T08:42:47.912Z,63.65
2022-10-16T08:48:01.955Z,62.50
2022-10-16T08:53:06.157Z,61.50
2022-10-16T08:58:28.830Z,61.64
2022-10-16T09:04:00.332Z,61.34
2022-10-16T09:09:26.890Z,60.55
2022-10-16T09:14:50.016Z,60.03
2022-10-16T09:20:11.585Z,59.89
2022-10-16T09:25:21.320Z,59.21
2022-10-16T09:30:24.172Z,58.06
2022-10-16T09:35:36.646Z,57.61
2022-10-16T09:40:42.740Z,57.72
2022-10-16T09:45:55.271Z,57.85
2022-10-16T09:51:03.336Z,57.12
2022-10-16T09:56:10.372Z,56.17
2022-10-16T10:01:16.597Z,55.80
2022-10-16T10:06:29.279Z,55.45
2022-10-16T10:11:50.645Z,55.29
2022-10-16T10:17:02.562Z,55.52
2022-10-16T10:22:19.762Z,54.68
2022-10-16T10:27:24.927Z,55.05
2022-10-16T10:32:39.058Z,56.19
2022-10-16T10:38:04.650Z,57.00
2022-10-16T10:43:26.396Z,57.55
2022-10-16T10:48:35.324Z,57.45
2022-10-16T10:53:43.251Z,57.29
2022-10-16T10:59:11.450Z,57.36
2022-10-16T11:04:40.349Z,57.09
2022-10-16T11:10:14.371Z,56.86
2022-10-16T11:15:30.027Z,57.28
2022-10-16T11:20:41.234Z,56.95
2022-10-16T11:25:45.378Z,57.16
2022-10-16T11:30:52.865Z,57.37
2022-10-16T11:36:00.318Z,58.14
2022-10-16T11:41:16.624Z,58.80
2022-10-16T11:46:23.083Z,59.14
2022-10-16T11:51:37.989Z,59.28
2022-10-16T11:56:42.812Z,59.42
2022-10-16T12:02:07.817Z,59.40
2022-10-16T12:07:25.728Z,58.26
2022-10-16T12:12:37.367Z,56.49
2022-10-16T12:17:39.862Z,56.35
2022-10-16T12:22:49.337Z,56.65
2022-10-16T12:28:19.390Z,56.41
2022-10-16T12:33:27.571Z,56.78
2022-10-16T12:38:55.709Z,57.07
2022-10-16T12:43:59.618Z,57.56
2022-10-16T12:49:25.589Z,57.61
2022-10-16T12:54:38.864Z,58.26
2022-10-16T12:59:49.717Z,58.86
2022-10-16T13:05:10.214Z,59.57
2022-10-16T13:10:36.873Z,59.44
2022-10-16T13:15:50.558Z,59.05
2022-10-16T13:21:07.840Z,58.75
2022-10-16T13:26:22.756Z,58.16
2022-10-16T13:31:26.242Z,57.40
2022-10-16T13:36:32.002Z,56.73
2022-10-16T13:41:33.865Z,57.02
2022-10-16T13:46:35.659Z,57.34
2022-10-16T13:51:37.714Z,57.59
2022-10-16T13:56:41.269Z,57.49
2022-10-16T14:01:55.288Z,55.89
2022-10-16T14:06:57.155Z,55.33
2022-10-16T14:12:12.560Z,55.29
2022-10-16T14:17:33.775Z,55.04
2022-10-16T14:22:47.672Z,54.76
2022-10-16T14:33:27.697Z,54.90
2022-10-16T14:38:30.338Z,54.93
2022-10-16T14:43:37.618Z,55.16
2022-10-16T14:48:43.947Z,55.39
2022-10-16T14:53:46.434Z,55.24
2022-10-16T14:58:50.770Z,55.17
2022-10-16T15:03:54.931Z,55.50
2022-10-16T15:08:56.998Z,55.72
2022-10-16T15:13:59.030Z,56.10
2022-10-16T15:19:07.215Z,56.62
2022-10-16T15:24:16.506Z,57.28
2022-10-16T15:29:21.284Z,57.84
2022-10-16T15:34:23.110Z,58.46
2022-10-16T15:39:24.957Z,59.19
2022-10-16T15:44:30.994Z,59.83
2022-10-16T15:49:32.993Z,60.65
2022-10-16T15:54:35.073Z,61.19
2022-10-16T15:59:36.865Z,61.76
2022-10-16T16:04:43.857Z,62.55
2022-10-16T16:09:46.682Z,62.92
2022-10-16T16:14:50.135Z,63.15
2022-10-16T16:19:52.345Z,63.48
2022-10-16T16:24:54.530Z,63.71
2022-10-16T16:29:57.022Z,64.15
2022-10-16T16:34:58.773Z,64.39
2022-10-16T16:40:00.681Z,64.80
2022-10-16T16:45:02.496Z,64.91
2022-10-16T16:50:06.003Z,65.23
2022-10-16T16:55:14.094Z,65.51
2022-10-16T17:00:16.164Z,66.19
2022-10-16T17:05:19.055Z,66.51
2022-10-16T17:10:21.093Z,66.94
2022-10-16T17:15:22.933Z,67.32
2022-10-16T17:20:39.792Z,67.61
2022-10-16T17:25:42.460Z,68.04
2022-10-16T17:30:44.720Z,68.55
2022-10-16T17:35:47.379Z,69.15
2022-10-16T17:40:49.190Z,69.72
2022-10-16T17:45:51.016Z,70.04
2022-10-16T17:50:52.954Z,70.19
2022-10-16T17:55:59.333Z,70.53
2022-10-16T18:01:02.158Z,71.05
2022-10-16T18:06:04.941Z,71.39
2022-10-16T18:11:06.723Z,71.82
2022-10-16T18:16:12.491Z,71.84
2022-10-16T18:21:18.176Z,71.83
2022-10-16T18:26:21.322Z,71.61
2022-10-16T18:31:26.297Z,71.49
2022-10-16T18:36:30.893Z,71.52
2022-10-16T18:41:32.842Z,71.37
2022-10-16T18:46:34.632Z,71.33
2022-10-16T18:51:40.239Z,71.39
2022-10-16T18:56:42.337Z,71.42
2022-10-16T19:01:44.449Z,71.71
2022-10-16T19:06:49.497Z,72.07
2022-10-16T19:16:54.330Z,72.29
2022-10-16T19:22:11.196Z,72.14
2022-10-16T19:27:16.709Z,72.07
2022-10-16T19:32:18.491Z,71.98
2022-10-16T19:37:25.744Z,71.87
2022-10-16T19:42:27.768Z,71.82
2022-10-16T19:47:31.302Z,72.07
2022-10-16T19:52:34.277Z,72.26
2022-10-16T19:57:40.504Z,72.33
2022-10-16T20:02:42.501Z,72.35
2022-10-16T20:07:44.266Z,72.46
2022-10-16T20:12:46.180Z,72.48
2022-10-16T20:17:48.314Z,72.44
2022-10-16T20:22:50.175Z,72.58
2022-10-16T20:27:52.081Z,72.65
2022-10-16T20:32:56.989Z,72.76
2022-10-16T20:38:18.781Z,72.75
2022-10-16T20:43:35.458Z,72.83
2022-10-16T20:48:41.171Z,73.21
2022-10-16T20:53:44.436Z,73.35
2022-10-16T20:58:46.622Z,73.44
2022-10-16T21:03:57.031Z,73.76
2022-10-16T21:09:03.398Z,74.08
2022-10-16T21:14:09.216Z,74.44
2022-10-16T21:19:11.128Z,74.60
2022-10-16T21:24:16.542Z,74.94
2022-10-16T21:29:20.193Z,75.17
2022-10-16T21:34:22.896Z,75.46
2022-10-16T21:39:24.934Z,75.77
2022-10-16T21:44:26.848Z,76.15
2022-10-16T21:49:28.782Z,76.59
2022-10-16T21:54:30.763Z,77.16
2022-10-16T21:59:32.713Z,77.23
2022-10-16T22:04:34.740Z,77.22
2022-10-16T22:09:36.557Z,77.21
2022-10-16T22:14:39.776Z,77.34
2022-10-16T22:19:41.606Z,77.73
2022-10-16T22:24:43.703Z,78.03
2022-10-16T22:29:45.622Z,78.14
2022-10-16T22:34:47.503Z,78.21
2022-10-16T22:40:09.736Z,78.43
2022-10-16T22:45:12.022Z,78.68
2022-10-16T22:50:14.155Z,78.77
2022-10-16T22:55:16.205Z,78.77
2022-10-16T23:00:19.765Z,79.18
2022-10-16T23:05:21.561Z,79.28
2022-10-16T23:10:27.552Z,79.67
2022-10-16T23:15:29.921Z,79.85
2022-10-16T23:20:31.814Z,80.13
2022-10-16T23:25:33.758Z,80.38
2022-10-16T23:30:40.716Z,80.51
2022-10-16T23:35:42.668Z,80.83
2022-10-16T23:40:44.597Z,81.16
2022-10-16T23:45:46.442Z,81.29
2022-10-16T23:50:48.509Z,81.31
2022-10-16T23:55:50.384Z,81.38
